Time;durP1;ratioP1;P1;durP2;ratioP2;P2;SDS_P1;SDS_P2;PMS_P1;PMS_P2;Temp;Humidity;BMP_temperature;BMP_pressure;BME280_temperature;BME280_humidity;BME280_pressure;Samples;Min_cycle;Max_cycle;Signal;HPM_P1;HPM_P2
2022/04/20 00:00:47;;;;;;;2.88;1.73;;;9.30;99.90;;;;;;5037924;28;20037;-81
2022/04/20 00:03:12;;;;;;;1.60;1.50;;;9.30;99.90;;;;;;5039234;28;20068;-81
2022/04/20 00:05:38;;;;;;;1.98;1.83;;;9.30;99.90;;;;;;5039984;28;20389;-81
2022/04/20 00:08:04;;;;;;;6.22;1.60;;;9.20;99.90;;;;;;5039516;28;20251;-81
2022/04/20 00:10:30;;;;;;;1.20;1.20;;;9.20;99.90;;;;;;5062993;28;20044;-80
2022/04/20 00:12:56;;;;;;;2.30;1.60;;;9.20;99.90;;;;;;5081694;28;20044;-81
2022/04/20 00:15:22;;;;;;;2.45;1.33;;;9.20;99.90;;;;;;5078851;28;20036;-81
2022/04/20 00:17:48;;;;;;;1.08;1.05;;;9.20;99.90;;;;;;5081295;28;20457;-81
2022/04/20 00:20:14;;;;;;;3.28;2.33;;;9.10;99.90;;;;;;5081097;28;20096;-80
2022/04/20 00:22:39;;;;;;;1.50;1.40;;;9.10;99.90;;;;;;5079779;28;20044;-81
2022/04/20 00:25:05;;;;;;;1.30;1.23;;;9.10;99.90;;;;;;5080621;28;20112;-81
2022/04/20 00:27:38;;;;;;;2.83;1.67;;;9.10;99.90;;;;;;5062864;28;20050;-80
2022/04/20 00:30:06;;;;;;;3.85;1.88;;;9.10;99.90;;;;;;5062702;28;20504;-81
2022/04/20 00:32:31;;;;;;;1.58;1.42;;;9.10;99.90;;;;;;5080941;28;20036;-81
2022/04/20 00:34:57;;;;;;;2.72;1.95;;;9.00;99.90;;;;;;5080847;28;20051;-81
2022/04/20 00:37:23;;;;;;;1.80;1.50;;;9.00;99.90;;;;;;5079894;28;20296;-81
2022/04/20 00:39:49;;;;;;;2.20;1.27;;;9.00;99.90;;;;;;5080851;28;20044;-81
2022/04/20 00:42:14;;;;;;;1.80;1.67;;;9.00;99.90;;;;;;5045487;28;20069;-81
2022/04/20 00:44:41;;;;;;;1.77;1.52;;;9.00;99.90;;;;;;5060480;28;20491;-81
2022/04/20 00:47:07;;;;;;;1.35;1.25;;;8.90;99.90;;;;;;5080679;28;20036;-81
2022/04/20 00:49:34;;;;;;;1.38;1.27;;;8.90;99.90;;;;;;5084775;28;20044;-81
2022/04/20 00:52:01;;;;;;;1.98;1.20;;;8.90;99.90;;;;;;5083505;28;20144;-80
2022/04/20 00:54:27;;;;;;;0.85;0.80;;;8.80;99.90;;;;;;5084804;28;20131;-80
2022/04/20 00:56:53;;;;;;;3.60;1.88;;;8.80;99.90;;;;;;5066491;28;20123;-81
2022/04/20 00:59:21;;;;;;;4.22;1.45;;;8.80;99.90;;;;;;5083872;28;20040;-81
2022/04/20 01:01:47;;;;;;;6.82;1.42;;;8.80;99.90;;;;;;5089077;22;20060;-73
2022/04/20 01:04:13;;;;;;;2.55;1.13;;;8.80;99.90;;;;;;5063918;28;20044;-73
2022/04/20 01:06:39;;;;;;;1.35;1.35;;;8.80;99.90;;;;;;5063146;28;20131;-73
2022/04/20 01:09:05;;;;;;;0.70;0.70;;;8.80;99.90;;;;;;5045859;28;20456;-73
2022/04/20 01:11:31;;;;;;;0.85;0.85;;;8.70;99.90;;;;;;5064067;28;20045;-73
2022/04/20 01:13:57;;;;;;;1.67;1.45;;;8.70;99.90;;;;;;5064701;28;20043;-74
2022/04/20 01:16:25;;;;;;;12.68;2.80;;;8.70;99.90;;;;;;5063815;28;20041;-75
2022/04/20 01:18:51;;;;;;;1.38;1.27;;;8.70;99.90;;;;;;5064152;28;20340;-75
2022/04/20 01:21:16;;;;;;;1.50;1.33;;;8.60;99.90;;;;;;5063030;28;20048;-74
2022/04/20 01:23:42;;;;;;;1.80;1.60;;;8.60;99.90;;;;;;5065139;28;20123;-75
2022/04/20 01:26:08;;;;;;;2.38;1.58;;;8.60;99.90;;;;;;5083631;28;20032;-75
2022/04/20 01:28:36;;;;;;;1.27;1.17;;;8.60;99.90;;;;;;5084234;28;20036;-74
2022/04/20 01:31:02;;;;;;;1.20;1.20;;;8.60;99.90;;;;;;5065371;28;20129;-75
2022/04/20 01:33:28;;;;;;;1.50;1.38;;;8.50;99.90;;;;;;5066181;28;20060;-75
2022/04/20 01:35:54;;;;;;;4.18;1.40;;;8.50;99.90;;;;;;5083626;28;20040;-75
2022/04/20 01:38:19;;;;;;;2.15;1.73;;;8.50;99.90;;;;;;5083628;28;20067;-75
2022/04/20 01:40:45;;;;;;;1.70;1.60;;;8.50;99.90;;;;;;5083668;28;20119;-74
2022/04/20 01:43:10;;;;;;;14.60;1.85;;;8.40;99.90;;;;;;5082995;28;20102;-75
2022/04/20 01:45:36;;;;;;;1.60;1.23;;;8.40;99.90;;;;;;5083769;28;20093;-74
2022/04/20 01:48:01;;;;;;;5.03;1.10;;;8.40;99.90;;;;;;5082056;28;20040;-75
2022/04/20 01:50:27;;;;;;;2.15;1.33;;;8.40;99.90;;;;;;5083727;28;20066;-74
2022/04/20 01:52:53;;;;;;;3.70;2.00;;;8.30;99.90;;;;;;5082576;28;20035;-74
2022/04/20 01:55:19;;;;;;;0.85;0.85;;;8.30;99.90;;;;;;5065197;28;20131;-74
2022/04/20 01:57:44;;;;;;;2.88;1.60;;;8.30;99.90;;;;;;5082531;28;20542;-75
2022/04/20 02:00:11;;;;;;;3.45;2.25;;;8.30;99.90;;;;;;5082866;28;20143;-74
2022/04/20 02:02:40;;;;;;;1.25;1.17;;;8.30;99.90;;;;;;5047385;28;20070;-75
2022/04/20 02:05:09;;;;;;;1.83;1.50;;;8.30;99.90;;;;;;5064368;28;20138;-74
2022/04/20 02:07:35;;;;;;;1.60;1.45;;;8.20;99.90;;;;;;5082130;28;20048;-74
2022/04/20 02:10:01;;;;;;;3.70;2.00;;;8.20;99.90;;;;;;5082909;28;20097;-74
2022/04/20 02:12:27;;;;;;;0.93;0.90;;;8.20;99.90;;;;;;5063295;28;20130;-74
2022/04/20 02:14:53;;;;;;;1.90;0.95;;;8.10;99.90;;;;;;5062655;28;20127;-74
2022/04/20 02:17:19;;;;;;;1.45;1.35;;;8.20;99.90;;;;;;5028244;28;20032;-75
2022/04/20 02:19:45;;;;;;;2.08;1.20;;;8.10;99.90;;;;;;5062464;28;20049;-74
2022/04/20 02:22:11;;;;;;;2.17;1.50;;;8.10;99.90;;;;;;5061553;28;20580;-74
2022/04/20 02:24:36;;;;;;;1.95;1.85;;;8.10;99.90;;;;;;5062753;28;20032;-74
2022/04/20 02:27:02;;;;;;;3.25;1.88;;;8.00;99.90;;;;;;5062026;28;20044;-74
2022/04/20 02:29:28;;;;;;;5.00;1.83;;;8.00;99.90;;;;;;5062611;28;20044;-74
2022/04/20 02:31:53;;;;;;;3.95;1.48;;;8.00;99.90;;;;;;5060802;28;20096;-75
2022/04/20 02:34:19;;;;;;;3.40;1.35;;;8.00;99.90;;;;;;5062366;28;20041;-74
2022/04/20 02:36:45;;;;;;;1.75;1.33;;;7.90;99.90;;;;;;5061646;28;20494;-74
2022/04/20 02:39:11;;;;;;;3.28;1.60;;;7.90;99.90;;;;;;5043891;28;20048;-75
2022/04/20 02:41:37;;;;;;;1.88;1.55;;;7.90;99.90;;;;;;5062243;28;20548;-74
2022/04/20 02:44:06;;;;;;;1.73;1.63;;;7.90;99.90;;;;;;5057775;28;20044;-75
2022/04/20 02:46:32;;;;;;;1.67;1.52;;;7.90;99.90;;;;;;5082264;28;20116;-75
2022/04/20 02:48:58;;;;;;;3.50;2.63;;;7.90;99.90;;;;;;5083012;28;20040;-74
2022/04/20 02:51:23;;;;;;;2.63;1.77;;;7.90;99.90;;;;;;5081408;28;20378;-74
2022/04/20 02:53:49;;;;;;;2.78;1.98;;;7.90;99.90;;;;;;5082170;28;20043;-74
2022/04/20 02:56:15;;;;;;;1.60;1.50;;;7.80;99.90;;;;;;5082019;28;20039;-74
2022/04/20 02:58:40;;;;;;;1.60;1.50;;;7.80;99.90;;;;;;5081942;28;20044;-74
2022/04/20 03:01:06;;;;;;;1.40;1.17;;;7.80;99.90;;;;;;5081896;28;20048;-74
2022/04/20 03:03:32;;;;;;;1.48;1.35;;;7.70;99.90;;;;;;5041285;28;20450;-75
2022/04/20 03:05:58;;;;;;;3.25;1.67;;;7.70;99.90;;;;;;5061570;28;20155;-74
2022/04/20 03:08:24;;;;;;;4.50;2.80;;;7.70;99.90;;;;;;5058531;28;20505;-74
2022/04/20 03:10:51;;;;;;;1.60;1.50;;;7.70;99.90;;;;;;5041085;28;20582;-74
2022/04/20 03:13:17;;;;;;;1.90;1.38;;;7.70;99.90;;;;;;5041051;28;20037;-74
2022/04/20 03:15:43;;;;;;;2.45;2.25;;;7.70;99.90;;;;;;5042310;28;20044;-75
2022/04/20 03:18:09;;;;;;;2.08;1.77;;;7.60;99.90;;;;;;5041350;28;20043;-74
2022/04/20 03:20:34;;;;;;;3.70;2.33;;;7.60;99.90;;;;;;5041649;28;20087;-74
2022/04/20 03:23:00;;;;;;;1.80;1.70;;;7.60;99.90;;;;;;5039525;28;20059;-74
2022/04/20 03:25:25;;;;;;;1.70;1.60;;;7.60;99.90;;;;;;5024138;28;20041;-74
2022/04/20 03:27:51;;;;;;;3.42;2.30;;;7.60;99.90;;;;;;5041437;28;20055;-74
2022/04/20 03:30:16;;;;;;;3.40;1.55;;;7.50;99.90;;;;;;5041101;28;20311;-74
2022/04/20 03:32:42;;;;;;;1.92;1.27;;;7.50;99.90;;;;;;5023683;28;20384;-74
2022/04/20 03:35:08;;;;;;;4.47;2.13;;;7.50;99.90;;;;;;5041197;28;20454;-74
2022/04/20 03:37:34;;;;;;;1.75;1.65;;;7.50;99.90;;;;;;5040621;28;20083;-74
2022/04/20 03:39:59;;;;;;;2.42;2.15;;;7.50;99.90;;;;;;5049371;28;20080;-74
2022/04/20 03:42:26;;;;;;;1.48;1.38;;;7.50;99.90;;;;;;5061086;28;20123;-74
2022/04/20 03:44:52;;;;;;;2.92;1.75;;;7.50;99.90;;;;;;5042919;28;20048;-74
2022/04/20 03:47:17;;;;;;;4.47;2.45;;;7.40;99.90;;;;;;5060739;28;20520;-74
2022/04/20 03:49:43;;;;;;;2.10;1.90;;;7.40;99.90;;;;;;5061254;28;20056;-74
2022/04/20 03:52:08;;;;;;;2.53;1.95;;;7.40;99.90;;;;;;5060392;28;20041;-74
2022/04/20 03:54:37;;;;;;;2.70;1.92;;;7.40;99.90;;;;;;5060983;28;20036;-75
2022/04/20 03:57:03;;;;;;;1.65;1.55;;;7.40;99.90;;;;;;5060946;28;20045;-74
2022/04/20 03:59:30;;;;;;;2.08;1.20;;;7.40;99.90;;;;;;5061817;28;20041;-74
2022/04/20 04:01:56;;;;;;;1.48;1.38;;;7.40;99.90;;;;;;5066612;28;20206;-74
2022/04/20 04:04:21;;;;;;;2.53;1.95;;;7.30;99.90;;;;;;5080686;28;20451;-74
2022/04/20 04:06:47;;;;;;;1.80;1.70;;;7.30;99.90;;;;;;5080426;28;20079;-74
2022/04/20 04:09:13;;;;;;;2.38;2.17;;;7.30;99.90;;;;;;5062688;28;20048;-74
2022/04/20 04:11:39;;;;;;;3.95;1.75;;;7.30;99.90;;;;;;5081042;28;20071;-74
2022/04/20 04:14:05;;;;;;;2.45;1.90;;;7.30;99.90;;;;;;5080932;28;20379;-75
2022/04/20 04:16:36;;;;;;;1.05;1.05;;;7.20;99.90;;;;;;5081467;28;20036;-74
2022/04/20 04:19:05;;;;;;;1.55;1.48;;;7.20;99.90;;;;;;5062797;28;20051;-75
2022/04/20 04:21:32;;;;;;;2.05;1.92;;;7.20;99.90;;;;;;5082891;28;20084;-74
2022/04/20 04:23:58;;;;;;;1.55;1.45;;;7.20;99.90;;;;;;5085401;28;20040;-74
2022/04/20 04:26:25;;;;;;;2.35;2.15;;;7.10;99.90;;;;;;5083588;28;20047;-74
2022/04/20 04:28:51;;;;;;;1.85;1.75;;;7.10;99.90;;;;;;5085045;28;20044;-74
2022/04/20 04:31:17;;;;;;;3.65;2.03;;;7.10;99.90;;;;;;5084266;28;20032;-74
2022/04/20 04:33:42;;;;;;;4.05;2.05;;;7.10;99.90;;;;;;5083663;28;20051;-74
2022/04/20 04:36:08;;;;;;;1.95;1.65;;;7.10;99.90;;;;;;5083346;28;20419;-74
2022/04/20 04:38:34;;;;;;;1.52;1.42;;;7.10;99.90;;;;;;5066312;28;20047;-74
2022/04/20 04:40:59;;;;;;;2.00;1.50;;;7.10;99.90;;;;;;5085280;28;20464;-74
2022/04/20 04:43:25;;;;;;;2.58;2.15;;;7.10;99.90;;;;;;5066255;28;20056;-74
2022/04/20 04:48:42;;;;;;;1.65;1.55;;;7.10;99.90;;;;;;5082697;28;20048;-74
2022/04/20 04:51:11;;;;;;;2.28;2.05;;;7.10;99.90;;;;;;5083195;28;20508;-74
2022/04/20 04:53:38;;;;;;;1.88;1.65;;;7.10;99.90;;;;;;5083756;28;20537;-74
2022/04/20 04:56:03;;;;;;;2.88;2.28;;;7.10;99.90;;;;;;5083977;28;20111;-74
2022/04/20 04:58:29;;;;;;;4.65;2.67;;;7.10;99.90;;;;;;5066673;28;20134;-74
2022/04/20 05:00:54;;;;;;;2.17;1.98;;;7.10;99.90;;;;;;5065343;28;20132;-74
2022/04/20 05:03:20;;;;;;;2.67;2.42;;;7.10;99.90;;;;;;5069418;28;20052;-74
2022/04/20 05:05:46;;;;;;;2.33;1.92;;;7.10;99.90;;;;;;5064508;28;20055;-77
2022/04/20 05:08:12;;;;;;;5.45;2.53;;;7.10;99.90;;;;;;5083089;28;20256;-76
2022/04/20 05:10:38;;;;;;;7.20;2.92;;;7.10;99.90;;;;;;5083776;28;20459;-75
2022/04/20 05:13:04;;;;;;;2.38;1.80;;;7.10;99.90;;;;;;5083438;28;20371;-75
2022/04/20 05:15:30;;;;;;;1.27;1.17;;;7.10;99.90;;;;;;5081345;28;20127;-79
2022/04/20 05:17:55;;;;;;;4.00;2.10;;;7.10;99.90;;;;;;5083753;28;20181;-80
2022/04/20 05:20:21;;;;;;;4.03;2.55;;;7.00;99.90;;;;;;5064607;28;20043;-78
2022/04/20 05:22:47;;;;;;;1.95;1.33;;;7.00;99.90;;;;;;5071433;28;20043;-78
2022/04/20 05:25:39;;;;;;;5.18;1.85;;;7.00;99.90;;;;;;5089306;28;20550;-77
2022/04/20 05:28:06;;;;;;;1.20;0.95;;;7.00;99.90;;;;;;5081622;28;20180;-77
2022/04/20 05:30:31;;;;;;;2.40;2.25;;;7.00;99.90;;;;;;5083774;28;20132;-77
2022/04/20 05:32:57;;;;;;;2.40;1.98;;;7.10;99.90;;;;;;5048223;28;20662;-76
2022/04/20 05:35:22;;;;;;;2.60;2.40;;;7.10;99.90;;;;;;5082537;28;20048;-79
2022/04/20 05:43:16;;;;;;;1.48;1.40;;;7.10;99.90;;;;;;5082244;28;20063;-77
2022/04/20 05:45:42;;;;;;;1.50;1.40;;;7.10;99.90;;;;;;5062755;28;20035;-82
2022/04/20 05:48:08;;;;;;;2.20;1.92;;;7.10;99.90;;;;;;5075135;28;20045;-82
2022/04/20 05:50:33;;;;;;;7.22;2.58;;;7.10;99.90;;;;;;5058179;28;20047;-77
2022/04/20 05:53:00;;;;;;;2.40;1.40;;;7.20;99.90;;;;;;5083888;28;20047;-78
2022/04/20 05:55:25;;;;;;;1.90;1.80;;;7.20;99.90;;;;;;5083567;28;20067;-79
2022/04/20 05:57:51;;;;;;;5.07;3.10;;;7.20;99.90;;;;;;5082683;28;20176;-82
2022/04/20 06:00:18;;;;;;;4.95;1.90;;;7.20;99.90;;;;;;5081832;28;20522;-79
2022/04/20 06:02:43;;;;;;;4.63;2.17;;;7.20;99.90;;;;;;5064303;28;20134;-80
2022/04/20 06:05:10;;;;;;;8.50;2.10;;;7.30;99.90;;;;;;5073074;28;20181;-80
2022/04/20 06:07:36;;;;;;;2.30;1.60;;;7.30;99.90;;;;;;5045125;28;20097;-78
2022/04/20 06:10:01;;;;;;;2.60;2.42;;;7.30;99.90;;;;;;5059439;28;20343;-78
2022/04/20 06:12:27;;;;;;;9.38;2.58;;;7.40;99.90;;;;;;5075172;28;20410;-78
2022/04/20 06:14:52;;;;;;;2.53;2.05;;;7.40;99.90;;;;;;5082146;28;20789;-78
2022/04/20 06:17:18;;;;;;;1.88;1.67;;;7.40;99.90;;;;;;5078731;28;20395;-79
2022/04/20 06:19:44;;;;;;;2.85;2.30;;;7.50;99.90;;;;;;5053088;28;20414;-77
2022/04/20 06:22:09;;;;;;;1.92;1.83;;;7.50;99.90;;;;;;5081656;28;20236;-78
2022/04/20 06:24:35;;;;;;;1.77;1.67;;;7.50;99.90;;;;;;5082913;28;20497;-78
2022/04/20 06:27:01;;;;;;;2.42;2.22;;;7.50;99.90;;;;;;5044389;28;20486;-76
2022/04/20 06:29:27;;;;;;;2.38;1.83;;;7.60;99.90;;;;;;5062235;28;20044;-77
2022/04/20 06:31:52;;;;;;;2.70;1.88;;;7.60;99.90;;;;;;5060210;28;20045;-77
2022/04/20 06:34:18;;;;;;;2.58;2.40;;;7.60;99.90;;;;;;5059968;28;20449;-77
2022/04/20 06:36:44;;;;;;;1.35;1.20;;;7.70;99.90;;;;;;5060559;28;20191;-78
2022/04/20 06:39:10;;;;;;;1.92;1.75;;;7.70;99.90;;;;;;5060739;28;20136;-78
2022/04/20 06:41:35;;;;;;;2.17;1.90;;;7.70;99.90;;;;;;5043229;28;20545;-76
2022/04/20 06:44:01;;;;;;;1.67;1.58;;;7.80;99.90;;;;;;5060553;28;20040;-76
2022/04/20 06:46:27;;;;;;;3.00;2.20;;;7.90;99.90;;;;;;5074519;28;20401;-76
2022/04/20 06:48:53;;;;;;;2.28;2.08;;;7.80;99.90;;;;;;5062861;28;20044;-76
2022/04/20 06:51:18;;;;;;;3.20;1.88;;;7.90;99.90;;;;;;5061387;28;20051;-76
2022/04/20 06:59:13;;;;;;;5.32;2.22;;;8.00;99.90;;;;;;5031481;28;20139;-77
2022/04/20 07:01:39;;;;;;;2.08;1.35;;;8.10;99.90;;;;;;5055462;28;20127;-77
2022/04/20 07:04:05;;;;;;;2.83;1.70;;;8.10;99.90;;;;;;5023675;28;20507;-79
2022/04/20 07:06:31;;;;;;;2.17;1.98;;;8.20;99.90;;;;;;5026896;28;20039;-78
2022/04/20 07:08:57;;;;;;;2.30;2.05;;;8.30;99.90;;;;;;5049531;28;20037;-78
2022/04/20 07:11:23;;;;;;;9.05;2.05;;;8.30;99.90;;;;;;5048123;28;20052;-76
2022/04/20 07:13:52;;;;;;;1.52;1.42;;;8.30;99.90;;;;;;5044977;28;20118;-78
2022/04/20 07:16:18;;;;;;;2.92;2.47;;;8.40;99.90;;;;;;5049125;28;20063;-77
2022/04/20 07:18:46;;;;;;;5.47;2.33;;;8.40;99.90;;;;;;5031326;28;20068;-78
2022/04/20 07:21:12;;;;;;;6.80;2.75;;;8.50;99.90;;;;;;5025800;28;20083;-79
2022/04/20 07:23:38;;;;;;;2.38;2.17;;;8.50;99.90;;;;;;5031151;28;20068;-77
2022/04/20 07:26:06;;;;;;;1.73;1.63;;;8.50;99.90;;;;;;5048290;28;20028;-77
2022/04/20 07:28:32;;;;;;;3.28;2.03;;;8.60;99.90;;;;;;5046765;28;20120;-77
2022/04/20 07:30:58;;;;;;;6.93;1.75;;;8.60;99.90;;;;;;5026059;28;20136;-77
2022/04/20 07:33:24;;;;;;;4.95;2.13;;;8.70;99.90;;;;;;5041683;28;20102;-77
2022/04/20 07:35:50;;;;;;;1.77;1.67;;;8.70;99.90;;;;;;5058853;28;20404;-77
2022/04/20 07:38:15;;;;;;;2.10;1.77;;;8.70;99.90;;;;;;5041681;28;20044;-77
2022/04/20 07:40:43;;;;;;;1.52;1.42;;;8.80;99.90;;;;;;5059799;28;20392;-77
2022/04/20 07:43:12;;;;;;;3.42;2.25;;;8.80;99.90;;;;;;5042521;28;20086;-77
2022/04/20 07:45:40;;;;;;;2.58;2.38;;;8.90;99.90;;;;;;5035654;28;20415;-78
2022/04/20 07:48:06;;;;;;;2.45;2.28;;;9.00;99.90;;;;;;5040560;28;20052;-78
2022/04/20 07:50:32;;;;;;;2.75;2.10;;;9.00;99.90;;;;;;5004708;28;20037;-78
2022/04/20 07:53:00;;;;;;;1.63;1.40;;;9.10;99.90;;;;;;5040519;28;20045;-78
2022/04/20 07:55:28;;;;;;;5.88;2.65;;;9.10;99.90;;;;;;5024395;28;20063;-78
2022/04/20 07:57:56;;;;;;;1.95;1.85;;;9.10;99.90;;;;;;5020805;28;20033;-77
2022/04/20 08:00:22;;;;;;;1.27;1.10;;;9.20;99.90;;;;;;5050031;28;20052;-77
2022/04/20 08:03:16;;;;;;;0.77;0.77;;;9.20;99.90;;;;;;5054038;28;20059;-76
2022/04/20 08:05:43;;;;;;;1.15;1.02;;;9.30;99.90;;;;;;5060724;28;20107;-77
2022/04/20 08:08:10;;;;;;;1.70;1.60;;;9.30;99.90;;;;;;5060998;28;20045;-77
2022/04/20 08:10:36;;;;;;;1.17;1.00;;;9.30;99.90;;;;;;5034332;28;20064;-77
2022/04/20 08:14:09;;;;;;;1.85;1.75;;;9.40;99.90;;;;;;5042890;28;20044;-77
2022/04/20 08:15:48;;;;;;;1.02;0.93;;;9.50;99.90;;;;;;5025426;28;20491;-78
2022/04/20 08:18:14;;;;;;;1.95;1.40;;;9.50;99.90;;;;;;5046791;28;20044;-79
2022/04/20 08:20:40;;;;;;;1.63;1.52;;;9.50;99.90;;;;;;5065989;28;20395;-78
2022/04/20 08:23:11;;;;;;;1.77;1.63;;;9.60;99.90;;;;;;5048600;28;20040;-78
2022/04/20 08:25:40;;;;;;;1.45;0.80;;;9.60;99.90;;;;;;5067106;28;20122;-78
2022/04/20 08:28:15;;;;;;;4.70;1.73;;;9.60;99.90;;;;;;5066110;28;20040;-77
2022/04/20 08:30:41;;;;;;;2.72;2.55;;;9.70;99.90;;;;;;5056235;28;20415;-77
2022/04/20 08:33:08;;;;;;;2.33;1.38;;;9.70;99.90;;;;;;5047698;28;20029;-78
2022/04/20 08:35:35;;;;;;;1.75;1.38;;;9.70;99.90;;;;;;5050629;28;20136;-77
2022/04/20 08:38:01;;;;;;;1.60;1.50;;;9.80;99.90;;;;;;5040767;28;20089;-76
2022/04/20 08:40:28;;;;;;;2.63;1.55;;;9.80;99.90;;;;;;5037312;28;20044;-77
2022/04/20 08:42:54;;;;;;;1.42;1.17;;;9.80;99.90;;;;;;5087768;28;20040;-77
2022/04/20 08:45:20;;;;;;;1.52;1.42;;;9.80;99.90;;;;;;5085253;28;20426;-77
2022/04/20 08:47:49;;;;;;;2.35;1.70;;;9.90;99.90;;;;;;5056475;28;20044;-78
2022/04/20 08:50:15;;;;;;;6.85;1.50;;;10.00;99.90;;;;;;5042720;28;20504;-78
2022/04/20 08:52:42;;;;;;;2.05;1.35;;;10.00;99.90;;;;;;5048431;28;20048;-77
2022/04/20 08:55:16;;;;;;;0.90;0.90;;;10.00;99.90;;;;;;5045039;28;20037;-78
2022/04/20 08:57:44;;;;;;;1.17;0.82;;;10.00;99.90;;;;;;5029239;28;20763;-77
2022/04/20 09:00:13;;;;;;;2.72;1.27;;;10.00;99.90;;;;;;5057066;28;20133;-78
2022/04/20 09:02:39;;;;;;;1.92;1.60;;;10.10;99.90;;;;;;5062029;28;20055;-78
2022/04/20 09:05:05;;;;;;;3.25;1.33;;;10.10;99.90;;;;;;5078508;28;20421;-77
2022/04/20 09:07:31;;;;;;;1.58;1.48;;;10.20;99.90;;;;;;5077673;28;20046;-77
2022/04/20 09:09:58;;;;;;;2.90;2.13;;;10.20;99.90;;;;;;5078877;28;20461;-76
2022/04/20 09:12:26;;;;;;;1.52;1.45;;;10.10;99.90;;;;;;5069406;28;20041;-77
2022/04/20 09:14:52;;;;;;;0.98;0.88;;;10.20;99.90;;;;;;5028259;28;20426;-77
2022/04/20 09:17:29;;;;;;;1.10;1.00;;;10.20;99.90;;;;;;5060243;28;20036;-78
2022/04/20 09:19:56;;;;;;;0.90;0.90;;;10.30;99.90;;;;;;5078687;28;20040;-78
2022/04/20 09:22:31;;;;;;;2.35;1.02;;;10.30;99.90;;;;;;5069978;28;20498;-78
2022/04/20 09:25:06;;;;;;;1.42;0.95;;;10.40;99.90;;;;;;5058850;28;20305;-78
2022/04/20 09:27:37;;;;;;;1.75;1.58;;;10.40;99.90;;;;;;5055180;28;20071;-77
2022/04/20 09:30:09;;;;;;;2.75;1.88;;;10.50;99.90;;;;;;5070212;28;20036;-77
2022/04/20 09:32:42;;;;;;;2.47;2.05;;;10.50;99.90;;;;;;5035188;28;20045;-77
2022/04/20 09:35:10;;;;;;;2.78;1.00;;;10.50;99.90;;;;;;5068757;28;20024;-79
2022/04/20 09:37:40;;;;;;;1.38;1.27;;;10.60;99.90;;;;;;5072411;28;20406;-78
2022/04/20 09:40:11;;;;;;;1.55;1.38;;;10.60;99.90;;;;;;5063942;28;20040;-78
2022/04/20 09:42:39;;;;;;;1.55;1.42;;;10.60;99.90;;;;;;5065177;28;20048;-77
2022/04/20 09:45:09;;;;;;;2.10;1.50;;;10.70;99.90;;;;;;5074735;28;20051;-79
2022/04/20 09:50:27;;;;;;;1.67;1.17;;;10.80;99.90;;;;;;5070529;28;20136;-79
2022/04/20 09:52:59;;;;;;;0.80;0.80;;;10.80;99.90;;;;;;5053649;28;20127;-78
2022/04/20 09:55:34;;;;;;;6.45;3.40;;;10.90;99.90;;;;;;5051802;28;20351;-78
2022/04/20 09:58:18;;;;;;;2.55;1.90;;;10.90;99.90;;;;;;5055996;28;20671;-78
2022/04/20 10:00:56;;;;;;;3.05;1.40;;;10.90;99.90;;;;;;5028600;28;20076;-77
2022/04/20 10:03:26;;;;;;;0.90;0.90;;;11.00;99.90;;;;;;5060795;28;20060;-77
2022/04/20 10:05:52;;;;;;;0.70;0.70;;;10.90;99.90;;;;;;5041726;28;20076;-77
2022/04/20 10:08:20;;;;;;;7.30;0.95;;;11.00;99.90;;;;;;5045036;28;20503;-77
2022/04/20 10:10:58;;;;;;;2.33;1.33;;;11.00;99.90;;;;;;5024081;28;20056;-78
2022/04/20 10:13:26;;;;;;;1.38;1.27;;;11.00;99.90;;;;;;5058957;28;20047;-76
2022/04/20 10:16:05;;;;;;;0.95;0.95;;;11.10;99.90;;;;;;5057592;28;20074;-77
2022/04/20 10:18:34;;;;;;;0.70;0.70;;;11.10;99.90;;;;;;5041952;28;20049;-77
2022/04/20 10:21:14;;;;;;;1.08;1.00;;;11.20;99.90;;;;;;5043418;28;20047;-76
2022/04/20 10:23:51;;;;;;;0.55;0.55;;;11.20;99.90;;;;;;5060738;28;20044;-77
2022/04/20 10:26:20;;;;;;;1.95;0.93;;;11.30;99.90;;;;;;5062128;28;20098;-80
2022/04/20 10:29:15;;;;;;;2.17;1.08;;;11.30;99.90;;;;;;5023539;28;20045;-75
2022/04/20 10:32:23;;;;;;;1.63;0.73;;;11.30;99.50;;;;;;5077926;28;20126;-76
2022/04/20 10:34:50;;;;;;;0.65;0.65;;;11.40;99.90;;;;;;5046276;28;20079;-76
2022/04/20 10:37:22;;;;;;;1.35;1.25;;;11.50;99.90;;;;;;5043942;28;20068;-76
2022/04/20 10:39:47;;;;;;;1.10;0.93;;;11.50;99.90;;;;;;5061345;28;20115;-76
2022/04/20 10:42:17;;;;;;;1.38;1.23;;;11.50;99.90;;;;;;5063307;28;20110;-77
2022/04/20 10:45:05;;;;;;;0.80;0.80;;;11.60;99.90;;;;;;5061999;28;21005;-76
2022/04/20 10:47:42;;;;;;;0.47;0.47;;;11.60;99.40;;;;;;5038191;28;20055;-76
2022/04/20 10:50:11;;;;;;;2.38;1.25;;;11.60;99.90;;;;;;5063450;28;20051;-76
2022/04/20 10:52:38;;;;;;;0.88;0.88;;;11.70;99.90;;;;;;5049253;28;20044;-77
2022/04/20 10:55:06;;;;;;;1.10;1.05;;;11.70;99.90;;;;;;5081759;28;20540;-76
2022/04/20 10:57:34;;;;;;;1.13;1.02;;;11.80;99.90;;;;;;5082010;28;20055;-75
2022/04/20 11:00:18;;;;;;;0.52;0.52;;;11.80;99.90;;;;;;5064245;28;20051;-76
2022/04/20 11:03:07;;;;;;;2.83;1.15;;;11.90;96.50;;;;;;5064100;28;20052;-76
2022/04/20 11:05:48;;;;;;;0.75;0.75;;;11.90;99.30;;;;;;5044014;28;20435;-76
2022/04/20 11:08:14;;;;;;;1.65;0.75;;;11.90;99.90;;;;;;5061729;28;20049;-76
2022/04/20 11:10:42;;;;;;;0.80;0.80;;;12.00;99.90;;;;;;5061826;28;20120;-77
2022/04/20 11:19:16;;;;;;;0.90;0.90;;;12.10;98.90;;;;;;5023608;28;20110;-77
2022/04/20 11:21:54;;;;;;;1.25;0.60;;;12.10;99.90;;;;;;5048804;28;20429;-76
2022/04/20 11:24:28;;;;;;;1.08;0.98;;;12.10;96.50;;;;;;5060038;28;20527;-76
2022/04/20 11:26:55;;;;;;;0.63;0.63;;;12.20;98.60;;;;;;5060458;28;20627;-76
2022/04/20 11:29:22;;;;;;;0.90;0.90;;;12.20;99.90;;;;;;5041568;28;20163;-75
2022/04/20 11:31:57;;;;;;;0.75;0.70;;;12.30;99.90;;;;;;5037841;28;20090;-75
2022/04/20 11:34:28;;;;;;;0.60;0.60;;;12.30;99.90;;;;;;5063179;28;20079;-78
2022/04/20 11:37:02;;;;;;;1.20;0.82;;;12.30;98.70;;;;;;5070247;28;20052;-76
2022/04/20 11:39:29;;;;;;;0.52;0.52;;;12.30;97.90;;;;;;5050742;28;20040;-77
2022/04/20 11:42:00;;;;;;;0.90;0.70;;;12.40;99.10;;;;;;5069107;28;20044;-79
2022/04/20 11:44:40;;;;;;;0.85;0.85;;;12.40;99.00;;;;;;5063269;28;20044;-82
2022/04/20 11:47:08;;;;;;;0.70;0.60;;;12.50;95.40;;;;;;5030029;28;20519;-80
2022/04/20 11:49:42;;;;;;;0.57;0.57;;;12.50;99.50;;;;;;5032299;28;20494;-81
2022/04/20 11:52:16;;;;;;;1.55;1.00;;;12.50;97.80;;;;;;5067144;28;20032;-82
2022/04/20 11:54:46;;;;;;;0.57;0.57;;;12.50;95.00;;;;;;5064874;28;20028;-82
2022/04/20 11:57:12;;;;;;;0.55;0.55;;;12.60;97.90;;;;;;5069720;28;20044;-80
2022/04/20 11:59:45;;;;;;;0.98;0.82;;;12.60;99.20;;;;;;5069511;28;20121;-79
2022/04/20 12:02:16;;;;;;;0.93;0.80;;;12.60;96.40;;;;;;5053120;28;20052;-80
2022/04/20 12:04:43;;;;;;;1.65;1.08;;;12.60;99.10;;;;;;5058583;28;20401;-79
2022/04/20 12:07:09;;;;;;;0.77;0.77;;;12.70;98.90;;;;;;5060570;28;20676;-78
2022/04/20 12:09:37;;;;;;;0.60;0.60;;;12.70;98.90;;;;;;5059233;28;20051;-83
2022/04/20 12:12:05;;;;;;;1.00;0.88;;;12.80;98.20;;;;;;5042585;28;20052;-83
2022/04/20 12:14:38;;;;;;;0.93;0.88;;;12.80;98.40;;;;;;5061589;28;20101;-81
2022/04/20 12:17:13;;;;;;;1.15;0.95;;;12.80;96.90;;;;;;5060894;28;20112;-81
2022/04/20 12:19:42;;;;;;;0.65;0.50;;;12.80;96.40;;;;;;5058220;28;20052;-79
2022/04/20 12:22:11;;;;;;;1.40;0.55;;;12.80;99.10;;;;;;5062344;28;20040;-83
2022/04/20 12:24:37;;;;;;;1.30;0.90;;;12.90;98.60;;;;;;5062653;28;20044;-81
2022/04/20 12:27:04;;;;;;;0.70;0.70;;;12.90;98.60;;;;;;5062750;28;20051;-81
2022/04/20 12:29:34;;;;;;;1.98;0.68;;;12.90;98.60;;;;;;5059666;28;20071;-80
2022/04/20 12:32:00;;;;;;;0.93;0.80;;;13.00;98.80;;;;;;5077679;28;20033;-79
2022/04/20 12:34:30;;;;;;;0.90;0.68;;;13.00;98.80;;;;;;5078136;28;20048;-79
2022/04/20 12:37:07;;;;;;;0.85;0.77;;;13.10;99.00;;;;;;5064933;28;20115;-79
2022/04/20 12:39:44;;;;;;;1.23;1.13;;;13.10;98.80;;;;;;5064098;28;20048;-79
2022/04/20 12:42:15;;;;;;;1.65;1.10;;;13.10;96.90;;;;;;5068769;28;20036;-80
2022/04/20 12:44:51;;;;;;;0.90;0.80;;;13.10;99.00;;;;;;5069549;28;20036;-79
2022/04/20 12:47:18;;;;;;;1.90;1.30;;;13.20;99.90;;;;;;5050041;28;20186;-80
2022/04/20 12:49:53;;;;;;;2.03;1.00;;;13.30;99.90;;;;;;5069073;28;20047;-79
2022/04/20 12:52:22;;;;;;;1.80;0.90;;;13.30;99.90;;;;;;5073737;28;20040;-81
2022/04/20 12:55:16;;;;;;;2.05;1.77;;;13.30;99.90;;;;;;5068475;28;20043;-83
2022/04/20 13:03:39;;;;;;;1.70;1.42;;;13.40;99.90;;;;;;5073068;28;20056;-82
2022/04/20 13:06:13;;;;;;;2.40;1.27;;;13.40;99.90;;;;;;5071092;28;20816;-83
2022/04/20 13:08:45;;;;;;;1.05;1.00;;;13.40;99.90;;;;;;5068253;28;20056;-83
2022/04/20 13:11:13;;;;;;;7.10;1.70;;;13.40;99.90;;;;;;5082774;28;20035;-83
2022/04/20 13:13:42;;;;;;;5.82;1.70;;;13.50;99.90;;;;;;5073969;28;20169;-82
2022/04/20 13:16:14;;;;;;;1.25;1.13;;;13.50;99.90;;;;;;5073040;28;20043;-80
2022/04/20 13:18:41;;;;;;;2.33;1.38;;;13.50;99.90;;;;;;5073434;28;20051;-80
2022/04/20 13:21:09;;;;;;;5.72;1.50;;;13.50;99.90;;;;;;5081468;28;20039;-79
2022/04/20 13:23:36;;;;;;;3.33;0.98;;;13.50;99.90;;;;;;5083460;28;20035;-80
2022/04/20 13:28:45;;;;;;;2.63;1.33;;;13.50;99.90;;;;;;5080148;28;20048;-81